Airfield :
LOGIN :

Register | Disclaimer

   EN    FR    IT 

 










Legend :    VFR   Marginal VFR   IFR   Intensive IFR   Very Intensive IFR
Visi :
Ceiling :
>= 8 km
>= 3000ft
5 to 8 km
1000 to 3000 ft
1500m to 5 km
500 to 1000 ft
800 to 1500m
200 to 500 ft
< 800m
< 200 ft
Symbols :   Thunderstorms  Fog  Heavy snow  Heavy precipitations  Wind > 20 kt
SIGMETs :     Misc.  Thunderstorms  Icing  Turbulence  Mountain Waves  Volcanic Ashes







- Airport Elevation : 17 ft
- IATA code : GRQ


EHGG - Groningen Eelde

CURRENT METAR :
  • 251725Z AUTO 33013KT 9999 BKN019/// 15/11 Q1025 NOSIG

EXPIRED METARs :
  • 251655Z AUTO 33012KT 300V360 9999 FEW020/// 15/10 Q1025 NOSIG
  • 251625Z AUTO 34012KT 290V030 9999 BKN020/// 16/11 Q1025 NOSIG
  • 251555Z AUTO 33010KT 280V360 9999 OVC018 16/12 Q1025 TEMPO BKN014
  • 251525Z AUTO 33011KT 280V360 9999 OVC018 16/12 Q1025 TEMPO BKN014
  • 251455Z AUTO 33011KT 290V020 9999 BKN019 BKN022 17/13 Q1025 TEMPO BKN014

TAF TAF EHGG
Valid from the 25 at 18:00 until the 27 at 00:00 UTC


251657Z 2518/2624 35012KT 9999 BKN015
BECMG 2518/2521 32006KT
PROB40
TEMPO 2518/2608 BKN012
PROB30 2601/2606 3500 BR MIFG
BECMG 2606/2609 36010KT
BECMG 2618/2621 03008KT
No reported NOTAMs for that airfield.



MET'MAP, your aeronautical weather chart ! - Copyright ORBIFLY December 2007 - Disclaimer

ORBIFLY MET'MAP TEAM :

Programming & Development : Alexandra Zaïnal
Concept & Development : Baudouin d'Aumeries
Co-Development & Prog : Marc-Olivier Méhu
Technical & hardware support : Manuel Goepfert

Contact : metmap@orbifly.com




SOURCES & CREDITS :

   NOAA